Time;durP1;ratioP1;P1;durP2;ratioP2;P2;SDS_P1;SDS_P2;PMS_P1;PMS_P2;Temp;Humidity;BMP_temperature;BMP_pressure;BME280_temperature;BME280_humidity;BME280_pressure;Samples;Min_cycle;Max_cycle;Signal;HPM_P1;HPM_P2
2023/02/10 00:00:19;;;;;;;45.97;29.25;;;;;;;;;;5056995;28;20194;-66
2023/02/10 00:02:48;;;;;;;47.47;29.23;;;;;;;;;;5045163;28;20277;-66
2023/02/10 00:05:15;;;;;;;51.67;31.38;;;;;;;;;;5036847;28;20269;-66
2023/02/10 00:07:42;;;;;;;54.25;30.25;;;;;;;;;;5036795;28;20205;-66
2023/02/10 00:10:10;;;;;;;45.05;27.60;;;;;;;;;;5053507;28;20189;-66
2023/02/10 00:12:37;;;;;;;46.00;29.20;;;;;;;;;;5050099;28;20282;-66
2023/02/10 00:15:05;;;;;;;55.22;30.35;;;;;;;;;;5042390;28;20195;-66
2023/02/10 00:17:32;;;;;;;52.78;29.10;;;;;;;;;;5036221;28;20678;-66
2023/02/10 00:20:01;;;;;;;41.97;27.38;;;;;;;;;;5036727;28;20611;-66
2023/02/10 00:22:28;;;;;;;52.80;29.40;;;;;;;;;;5036749;28;20204;-66
2023/02/10 00:24:55;;;;;;;46.97;31.13;;;;;;;;;;5036934;28;20196;-66
2023/02/10 00:27:23;;;;;;;44.90;30.88;;;;;;;;;;5036402;28;20202;-66
2023/02/10 00:29:51;;;;;;;52.28;30.77;;;;;;;;;;5036432;28;20226;-66
2023/02/10 00:32:18;;;;;;;55.85;29.80;;;;;;;;;;5036044;28;20673;-66
2023/02/10 00:34:45;;;;;;;56.30;30.02;;;;;;;;;;5036123;28;20598;-66
2023/02/10 00:37:14;;;;;;;51.13;29.83;;;;;;;;;;5036157;28;20198;-66
2023/02/10 00:39:41;;;;;;;52.30;30.25;;;;;;;;;;5035869;28;20201;-66
2023/02/10 00:42:08;;;;;;;53.95;31.70;;;;;;;;;;5035897;28;20191;-67
2023/02/10 00:44:35;;;;;;;54.15;32.33;;;;;;;;;;5036135;28;20606;-66
2023/02/10 00:47:02;;;;;;;52.95;30.92;;;;;;;;;;5036395;28;20192;-66
2023/02/10 00:49:30;;;;;;;54.53;30.15;;;;;;;;;;5035175;28;20190;-66
2023/02/10 00:51:57;;;;;;;49.03;29.92;;;;;;;;;;5035694;28;20206;-66
2023/02/10 00:54:25;;;;;;;53.55;32.45;;;;;;;;;;5035615;28;20227;-66
2023/02/10 00:56:52;;;;;;;55.83;32.67;;;;;;;;;;5035967;28;20213;-66
2023/02/10 00:59:20;;;;;;;53.88;31.40;;;;;;;;;;5035805;28;20305;-66
2023/02/10 01:01:47;;;;;;;54.13;30.73;;;;;;;;;;5041092;28;20697;-66
2023/02/10 01:04:15;;;;;;;53.42;32.45;;;;;;;;;;5055410;28;20224;-66
2023/02/10 01:06:42;;;;;;;49.72;30.67;;;;;;;;;;5055396;28;20189;-67
2023/02/10 01:09:09;;;;;;;56.65;31.00;;;;;;;;;;5049086;28;20216;-66
2023/02/10 01:11:38;;;;;;;56.10;32.33;;;;;;;;;;5035781;28;20198;-66
2023/02/10 01:14:05;;;;;;;50.05;30.90;;;;;;;;;;5035603;28;20194;-66
2023/02/10 01:16:33;;;;;;;60.60;32.05;;;;;;;;;;5035676;28;20202;-66
2023/02/10 01:19:01;;;;;;;60.92;32.38;;;;;;;;;;5035473;28;20225;-66
2023/02/10 01:21:28;;;;;;;67.55;31.90;;;;;;;;;;5035761;28;20577;-66
2023/02/10 01:23:55;;;;;;;63.08;31.65;;;;;;;;;;5035309;28;20226;-66
2023/02/10 01:26:22;;;;;;;50.70;30.27;;;;;;;;;;5035039;28;20638;-66
2023/02/10 01:28:51;;;;;;;59.47;31.27;;;;;;;;;;5035270;28;20202;-66
2023/02/10 01:31:19;;;;;;;60.65;33.03;;;;;;;;;;5035330;28;20205;-66
2023/02/10 01:33:47;;;;;;;59.30;29.60;;;;;;;;;;5034900;28;20198;-66
2023/02/10 01:36:15;;;;;;;62.10;33.55;;;;;;;;;;5034925;28;20199;-66
2023/02/10 01:38:43;;;;;;;61.63;31.95;;;;;;;;;;5034567;28;20214;-66
2023/02/10 01:41:10;;;;;;;56.72;32.05;;;;;;;;;;5035116;28;20190;-66
2023/02/10 01:43:52;;;;;;;59.65;30.45;;;;;;;;;;5034726;28;20195;-66
2023/02/10 01:46:21;;;;;;;52.90;33.03;;;;;;;;;;5035099;28;20628;-66
2023/02/10 01:48:48;;;;;;;62.80;34.25;;;;;;;;;;5035352;28;20205;-66
2023/02/10 01:51:17;;;;;;;65.05;32.95;;;;;;;;;;5034915;28;20210;-66
2023/02/10 01:53:44;;;;;;;67.45;32.47;;;;;;;;;;5034561;28;20195;-66
2023/02/10 01:56:12;;;;;;;67.45;33.88;;;;;;;;;;5034653;28;20190;-66
2023/02/10 01:58:41;;;;;;;87.85;37.13;;;;;;;;;;5034650;28;20223;-66
2023/02/10 02:01:08;;;;;;;67.43;33.58;;;;;;;;;;5034977;28;20190;-66
2023/02/10 02:03:40;;;;;;;68.50;33.55;;;;;;;;;;5037055;28;20202;-65
2023/02/10 02:06:08;;;;;;;61.53;34.85;;;;;;;;;;5034557;28;20226;-65
2023/02/10 02:08:35;;;;;;;59.97;34.58;;;;;;;;;;5038460;28;20193;-65
2023/02/10 02:11:06;;;;;;;65.35;33.63;;;;;;;;;;5054243;28;20188;-65
2023/02/10 02:13:53;;;;;;;70.90;35.38;;;;;;;;;;5054963;28;20180;-65
2023/02/10 02:16:25;;;;;;;68.45;34.47;;;;;;;;;;5054503;28;20186;-65
2023/02/10 02:18:58;;;;;;;66.88;35.25;;;;;;;;;;5054690;28;20205;-65
2023/02/10 02:21:37;;;;;;;67.07;34.33;;;;;;;;;;5054281;28;20187;-66
2023/02/10 02:24:23;;;;;;;70.68;35.55;;;;;;;;;;5054810;28;20185;-65
2023/02/10 02:27:07;;;;;;;58.40;32.60;;;;;;;;;;5054490;28;20175;-65
2023/02/10 02:32:40;;;;;;;66.03;38.33;;;;;;;;;;4954012;29;20161;-66
2023/02/10 02:35:08;;;;;;;68.43;35.03;;;;;;;;;;5039680;28;20195;-65
2023/02/10 02:37:38;;;;;;;69.32;36.55;;;;;;;;;;5054036;28;20193;-65
2023/02/10 02:40:06;;;;;;;68.13;37.08;;;;;;;;;;5054149;28;20284;-66
2023/02/10 02:42:34;;;;;;;76.78;34.90;;;;;;;;;;5054064;28;20197;-66
2023/02/10 02:45:02;;;;;;;67.65;38.22;;;;;;;;;;5053473;28;20194;-66
2023/02/10 02:47:36;;;;;;;68.90;38.65;;;;;;;;;;5054110;28;20204;-65
2023/02/10 02:50:09;;;;;;;64.85;38.13;;;;;;;;;;5053793;28;20196;-65
2023/02/10 02:52:44;;;;;;;69.82;38.90;;;;;;;;;;5053507;28;20620;-66
2023/02/10 02:55:14;;;;;;;84.75;40.88;;;;;;;;;;5053935;28;20185;-66
2023/02/10 02:57:46;;;;;;;67.82;39.08;;;;;;;;;;5053478;28;20646;-65
2023/02/10 03:00:15;;;;;;;73.28;39.97;;;;;;;;;;5053748;28;20180;-65
2023/02/10 03:02:42;;;;;;;70.30;38.88;;;;;;;;;;5052753;28;20538;-65
2023/02/10 03:05:11;;;;;;;77.30;40.42;;;;;;;;;;5052905;28;20222;-65
2023/02/10 03:07:39;;;;;;;62.35;37.25;;;;;;;;;;5053326;28;20734;-65
2023/02/10 03:10:06;;;;;;;73.93;39.95;;;;;;;;;;5038855;28;20638;-65
2023/02/10 03:12:33;;;;;;;66.38;36.88;;;;;;;;;;5033236;28;20197;-65
2023/02/10 03:15:00;;;;;;;78.43;38.67;;;;;;;;;;5033566;28;20198;-65
2023/02/10 03:17:28;;;;;;;68.82;39.63;;;;;;;;;;5033970;28;20199;-65
2023/02/10 03:19:55;;;;;;;62.50;37.47;;;;;;;;;;5033085;28;20210;-65
2023/02/10 03:22:23;;;;;;;73.43;38.83;;;;;;;;;;5033292;28;20643;-65
2023/02/10 03:24:50;;;;;;;75.57;39.30;;;;;;;;;;5033712;28;20196;-65
2023/02/10 03:27:18;;;;;;;74.38;41.92;;;;;;;;;;5033461;28;20205;-65
2023/02/10 03:29:45;;;;;;;65.25;37.45;;;;;;;;;;5033113;28;20202;-65
2023/02/10 03:32:12;;;;;;;75.50;38.67;;;;;;;;;;5033489;28;20233;-65
2023/02/10 03:34:40;;;;;;;63.88;38.70;;;;;;;;;;5033297;28;20237;-65
2023/02/10 03:37:07;;;;;;;70.65;40.83;;;;;;;;;;5033141;28;20203;-65
2023/02/10 03:39:35;;;;;;;84.55;42.25;;;;;;;;;;5032887;28;20671;-66
2023/02/10 03:42:03;;;;;;;59.80;38.03;;;;;;;;;;5033910;28;20201;-65
2023/02/10 03:44:30;;;;;;;75.07;41.00;;;;;;;;;;5033305;28;20289;-65
2023/02/10 03:46:57;;;;;;;70.45;39.40;;;;;;;;;;5033012;28;20199;-65
2023/02/10 03:49:24;;;;;;;73.85;40.78;;;;;;;;;;5033574;28;20561;-65
2023/02/10 03:51:51;;;;;;;73.85;39.45;;;;;;;;;;5048692;28;20193;-65
2023/02/10 03:54:19;;;;;;;70.93;40.78;;;;;;;;;;5073816;28;20521;-65
2023/02/10 03:56:47;;;;;;;80.38;41.72;;;;;;;;;;5073126;28;20196;-65
2023/02/10 03:59:14;;;;;;;75.13;42.85;;;;;;;;;;5073062;28;20220;-65
2023/02/10 04:01:41;;;;;;;73.05;40.50;;;;;;;;;;5066415;28;20196;-65
2023/02/10 04:04:08;;;;;;;86.05;41.63;;;;;;;;;;5052732;28;20191;-65
2023/02/10 04:06:36;;;;;;;82.03;42.05;;;;;;;;;;5053092;28;20187;-65
2023/02/10 04:09:03;;;;;;;68.93;41.55;;;;;;;;;;5051828;28;20204;-65
2023/02/10 04:11:30;;;;;;;75.90;40.78;;;;;;;;;;5052499;28;20287;-65
2023/02/10 04:13:58;;;;;;;84.82;42.78;;;;;;;;;;5052982;28;20277;-65
2023/02/10 04:16:27;;;;;;;71.82;38.75;;;;;;;;;;5052946;28;20280;-65
2023/02/10 04:18:54;;;;;;;86.97;44.08;;;;;;;;;;5052830;28;20222;-65
2023/02/10 04:21:22;;;;;;;80.10;43.63;;;;;;;;;;5053004;28;20199;-65
2023/02/10 04:23:49;;;;;;;81.90;41.30;;;;;;;;;;5052906;28;20193;-65
2023/02/10 04:26:16;;;;;;;83.97;42.97;;;;;;;;;;5055654;28;20193;-65
2023/02/10 04:28:43;;;;;;;88.28;43.75;;;;;;;;;;5056177;28;20200;-65
2023/02/10 04:31:12;;;;;;;75.18;43.42;;;;;;;;;;5056013;28;20215;-65
2023/02/10 04:33:39;;;;;;;91.00;44.08;;;;;;;;;;5056421;28;20188;-64
2023/02/10 04:36:06;;;;;;;83.45;42.03;;;;;;;;;;5055925;28;20199;-64
2023/02/10 04:38:34;;;;;;;74.07;40.83;;;;;;;;;;5056180;28;20188;-64
2023/02/10 04:41:02;;;;;;;72.70;41.72;;;;;;;;;;5056365;28;20194;-64
2023/02/10 04:43:29;;;;;;;71.88;42.10;;;;;;;;;;5055949;28;20205;-64
2023/02/10 04:45:57;;;;;;;78.50;41.25;;;;;;;;;;5055807;28;20198;-63
2023/02/10 04:48:25;;;;;;;81.65;40.13;;;;;;;;;;5056487;28;20284;-63
2023/02/10 04:50:53;;;;;;;91.75;42.35;;;;;;;;;;5055659;28;20225;-63
2023/02/10 04:53:21;;;;;;;81.80;40.10;;;;;;;;;;5055711;28;20190;-63
2023/02/10 04:55:48;;;;;;;83.72;41.40;;;;;;;;;;5056323;28;20198;-63
2023/02/10 04:58:15;;;;;;;79.15;41.88;;;;;;;;;;5055936;28;20325;-63
2023/02/10 05:00:42;;;;;;;78.97;41.42;;;;;;;;;;5055247;28;20216;-68
2023/02/10 05:03:09;;;;;;;86.28;41.70;;;;;;;;;;5054477;28;20197;-63
2023/02/10 05:05:38;;;;;;;85.05;42.33;;;;;;;;;;5055093;28;20220;-64
2023/02/10 05:08:05;;;;;;;85.47;42.03;;;;;;;;;;5054962;28;20640;-64
2023/02/10 05:10:32;;;;;;;92.88;42.58;;;;;;;;;;5055334;28;20199;-63
2023/02/10 05:12:59;;;;;;;90.38;43.60;;;;;;;;;;5054467;28;20189;-65
2023/02/10 05:15:27;;;;;;;80.63;39.40;;;;;;;;;;5054898;28;20199;-63
2023/02/10 05:17:54;;;;;;;90.20;46.33;;;;;;;;;;5054766;28;20193;-63
2023/02/10 05:20:21;;;;;;;91.68;40.95;;;;;;;;;;5054682;28;20671;-64
2023/02/10 05:22:49;;;;;;;92.78;47.45;;;;;;;;;;5054917;28;20282;-62
2023/02/10 05:25:17;;;;;;;90.55;44.88;;;;;;;;;;5054409;28;20200;-62
2023/02/10 05:27:44;;;;;;;99.47;45.90;;;;;;;;;;5054901;28;20615;-62
2023/02/10 05:30:13;;;;;;;91.22;43.95;;;;;;;;;;5054929;28;20226;-62
2023/02/10 05:32:40;;;;;;;86.30;43.35;;;;;;;;;;5054334;28;20195;-62
2023/02/10 05:35:08;;;;;;;97.47;41.58;;;;;;;;;;5054913;28;20194;-63
2023/02/10 05:37:35;;;;;;;96.00;46.30;;;;;;;;;;5053952;28;20203;-62
2023/02/10 05:40:04;;;;;;;92.80;43.03;;;;;;;;;;5054333;28;20671;-62
2023/02/10 05:42:31;;;;;;;89.07;46.00;;;;;;;;;;5054168;28;20194;-63
2023/02/10 05:44:59;;;;;;;103.30;44.92;;;;;;;;;;5054591;28;20289;-62
2023/02/10 05:47:26;;;;;;;92.45;45.00;;;;;;;;;;5054976;28;20248;-62
2023/02/10 05:49:53;;;;;;;97.20;43.20;;;;;;;;;;5055125;28;20198;-62
2023/02/10 05:52:20;;;;;;;85.68;43.35;;;;;;;;;;5054892;28;20192;-62
2023/02/10 05:54:47;;;;;;;99.72;45.47;;;;;;;;;;5054461;28;20193;-62
2023/02/10 05:57:16;;;;;;;94.97;44.78;;;;;;;;;;5054070;28;20292;-63
2023/02/10 05:59:43;;;;;;;69.28;35.42;;;;;;;;;;5054221;28;20561;-62
2023/02/10 06:02:10;;;;;;;91.80;45.33;;;;;;;;;;5053168;28;20197;-63
2023/02/10 06:04:37;;;;;;;104.07;47.70;;;;;;;;;;5052755;28;20570;-62
2023/02/10 06:07:05;;;;;;;90.03;42.53;;;;;;;;;;5053501;28;20188;-65
2023/02/10 06:09:32;;;;;;;88.32;47.20;;;;;;;;;;5054120;28;20202;-63
2023/02/10 06:12:00;;;;;;;95.47;46.67;;;;;;;;;;5054269;28;20215;-63
2023/02/10 06:14:29;;;;;;;100.65;45.45;;;;;;;;;;5054604;28;20193;-63
2023/02/10 06:16:56;;;;;;;90.40;44.15;;;;;;;;;;5054680;28;20319;-63
2023/02/10 06:19:23;;;;;;;86.25;45.03;;;;;;;;;;5054309;28;20211;-63
2023/02/10 06:21:51;;;;;;;92.70;45.00;;;;;;;;;;5054299;28;20704;-64
2023/02/10 06:24:18;;;;;;;101.70;48.20;;;;;;;;;;5054357;28;20546;-63
2023/02/10 06:26:45;;;;;;;80.70;45.22;;;;;;;;;;5054196;28;20281;-64
2023/02/10 06:29:13;;;;;;;107.70;47.80;;;;;;;;;;5054103;28;20204;-63
2023/02/10 06:31:42;;;;;;;92.70;40.55;;;;;;;;;;5054356;28;20194;-63
2023/02/10 06:34:09;;;;;;;94.38;43.92;;;;;;;;;;5053845;28;20642;-63
2023/02/10 06:36:36;;;;;;;89.80;42.30;;;;;;;;;;5054224;28;20193;-63
2023/02/10 06:39:03;;;;;;;103.72;46.60;;;;;;;;;;5053676;28;20194;-63
2023/02/10 06:41:31;;;;;;;100.93;48.15;;;;;;;;;;5053623;28;20198;-63
2023/02/10 06:43:58;;;;;;;96.53;48.10;;;;;;;;;;5053918;28;20536;-63
2023/02/10 06:46:25;;;;;;;108.22;48.38;;;;;;;;;;5053961;28;20219;-63
2023/02/10 06:48:53;;;;;;;102.72;49.50;;;;;;;;;;5053178;28;20215;-63
2023/02/10 06:51:21;;;;;;;98.07;47.25;;;;;;;;;;5053459;28;20290;-63
2023/02/10 06:53:48;;;;;;;103.57;48.15;;;;;;;;;;5053329;28;20220;-63
2023/02/10 06:56:15;;;;;;;84.47;47.67;;;;;;;;;;5053394;28;20197;-63
2023/02/10 06:58:42;;;;;;;95.72;47.42;;;;;;;;;;5053865;28;20193;-63
2023/02/10 07:01:10;;;;;;;77.90;44.58;;;;;;;;;;5053674;28;20226;-63
2023/02/10 07:03:37;;;;;;;90.80;48.50;;;;;;;;;;5053644;28;20197;-63
2023/02/10 07:06:06;;;;;;;87.30;45.38;;;;;;;;;;5053917;28;20232;-63
2023/02/10 07:08:34;;;;;;;86.50;46.72;;;;;;;;;;5053476;28;20217;-63
2023/02/10 07:11:01;;;;;;;85.72;46.50;;;;;;;;;;5053159;28;20646;-63
2023/02/10 07:13:28;;;;;;;83.85;46.33;;;;;;;;;;5053134;28;20200;-63
2023/02/10 07:15:56;;;;;;;82.40;43.85;;;;;;;;;;5053716;28;20544;-63
2023/02/10 07:18:23;;;;;;;89.30;47.00;;;;;;;;;;5053441;28;20224;-63
2023/02/10 07:20:50;;;;;;;90.95;46.15;;;;;;;;;;5053736;28;20224;-63
2023/02/10 07:23:18;;;;;;;77.20;45.67;;;;;;;;;;5053217;28;20187;-63
2023/02/10 07:25:46;;;;;;;97.47;46.80;;;;;;;;;;5053078;28;20200;-63
2023/02/10 07:28:13;;;;;;;84.68;43.55;;;;;;;;;;5052939;28;20658;-63
2023/02/10 07:30:40;;;;;;;81.38;42.80;;;;;;;;;;5053444;28;20202;-63
2023/02/10 07:33:07;;;;;;;79.03;43.22;;;;;;;;;;5053348;28;20191;-63
2023/02/10 07:35:34;;;;;;;79.78;42.50;;;;;;;;;;5053163;28;20220;-64
2023/02/10 07:38:01;;;;;;;79.93;43.20;;;;;;;;;;5053191;28;20190;-64
2023/02/10 07:40:30;;;;;;;83.13;44.85;;;;;;;;;;5053173;28;20239;-64
2023/02/10 07:42:57;;;;;;;81.70;46.45;;;;;;;;;;5052864;28;20193;-64
2023/02/10 07:45:26;;;;;;;92.65;45.15;;;;;;;;;;5053397;28;20200;-64
2023/02/10 07:47:53;;;;;;;87.18;43.25;;;;;;;;;;5053353;28;20196;-64
2023/02/10 07:50:20;;;;;;;91.78;44.72;;;;;;;;;;5053179;28;20198;-64
2023/02/10 07:52:48;;;;;;;90.50;45.10;;;;;;;;;;5053047;28;20200;-64
2023/02/10 07:55:15;;;;;;;83.03;44.17;;;;;;;;;;5053055;28;20212;-63
2023/02/10 07:57:43;;;;;;;88.40;42.35;;;;;;;;;;5053024;28;20193;-63
2023/02/10 08:00:12;;;;;;;98.78;45.10;;;;;;;;;;5055614;28;20327;-63
2023/02/10 08:02:39;;;;;;;98.13;44.17;;;;;;;;;;5057027;28;20194;-63
2023/02/10 08:05:06;;;;;;;85.68;41.45;;;;;;;;;;5057017;28;20225;-65
2023/02/10 08:07:33;;;;;;;84.18;44.08;;;;;;;;;;5056928;28;20541;-63
2023/02/10 08:10:01;;;;;;;92.72;44.30;;;;;;;;;;5056736;28;20235;-64
2023/02/10 08:12:28;;;;;;;101.60;46.28;;;;;;;;;;5056747;28;20193;-63
2023/02/10 08:14:56;;;;;;;98.07;45.90;;;;;;;;;;5056339;28;20199;-64
2023/02/10 08:17:23;;;;;;;98.13;48.50;;;;;;;;;;5056722;28;20637;-64
2023/02/10 08:19:51;;;;;;;106.60;45.95;;;;;;;;;;5056174;28;20622;-64
2023/02/10 08:22:18;;;;;;;94.10;45.55;;;;;;;;;;5056542;28;20200;-64
2023/02/10 08:24:45;;;;;;;101.70;47.72;;;;;;;;;;5056099;28;20193;-64
2023/02/10 08:27:12;;;;;;;112.53;48.00;;;;;;;;;;5056397;28;20725;-63
2023/02/10 08:29:39;;;;;;;93.90;46.63;;;;;;;;;;5056024;28;20634;-63
2023/02/10 08:32:08;;;;;;;100.57;49.05;;;;;;;;;;5056399;28;20194;-63
2023/02/10 08:34:36;;;;;;;97.65;46.10;;;;;;;;;;5056715;28;20189;-63
2023/02/10 08:37:03;;;;;;;98.63;49.15;;;;;;;;;;5056416;28;20193;-63
2023/02/10 08:39:31;;;;;;;103.22;41.85;;;;;;;;;;5056233;28;20198;-64
2023/02/10 08:41:58;;;;;;;103.28;46.55;;;;;;;;;;5055820;28;20701;-64
2023/02/10 08:44:25;;;;;;;103.05;47.13;;;;;;;;;;5056037;28;20643;-64
2023/02/10 08:46:52;;;;;;;99.03;47.22;;;;;;;;;;5056161;28;20219;-63
2023/02/10 08:49:24;;;;;;;111.43;46.75;;;;;;;;;;5056255;28;20546;-64
2023/02/10 08:51:51;;;;;;;116.20;49.55;;;;;;;;;;5056484;28;20191;-63
2023/02/10 08:54:19;;;;;;;104.65;47.97;;;;;;;;;;5055671;28;20201;-64
2023/02/10 08:56:46;;;;;;;112.07;47.10;;;;;;;;;;5055661;28;20204;-63
2023/02/10 08:59:13;;;;;;;110.78;47.10;;;;;;;;;;5055542;28;20193;-64
2023/02/10 09:01:40;;;;;;;103.70;47.30;;;;;;;;;;5055177;28;20604;-64
2023/02/10 09:04:08;;;;;;;107.32;47.53;;;;;;;;;;5055316;28;20197;-64
2023/02/10 09:06:38;;;;;;;97.40;45.42;;;;;;;;;;5056165;28;20185;-64
2023/02/10 09:09:06;;;;;;;108.60;49.08;;;;;;;;;;5055341;28;20203;-64
2023/02/10 09:11:33;;;;;;;95.93;47.28;;;;;;;;;;5054744;28;20207;-63
2023/02/10 09:14:01;;;;;;;117.60;50.92;;;;;;;;;;5055661;28;20194;-65
2023/02/10 09:16:28;;;;;;;106.03;49.85;;;;;;;;;;5055352;28;20187;-64
2023/02/10 09:18:55;;;;;;;111.45;50.33;;;;;;;;;;5055183;28;20197;-64
2023/02/10 09:21:24;;;;;;;102.13;46.20;;;;;;;;;;5054987;28;20213;-64
2023/02/10 09:23:52;;;;;;;103.85;48.22;;;;;;;;;;5055011;28;20190;-64
2023/02/10 09:26:19;;;;;;;105.90;47.85;;;;;;;;;;5054900;28;20196;-64
2023/02/10 09:28:47;;;;;;;105.85;43.45;;;;;;;;;;5054993;28;20591;-64
2023/02/10 09:31:15;;;;;;;102.25;47.58;;;;;;;;;;5055298;28;20605;-64
2023/02/10 09:33:43;;;;;;;98.20;48.35;;;;;;;;;;5055041;28;20197;-64
2023/02/10 09:36:14;;;;;;;105.15;46.28;;;;;;;;;;5055248;28;20251;-64
2023/02/10 09:38:41;;;;;;;98.20;48.33;;;;;;;;;;5054857;28;20194;-64
2023/02/10 09:41:15;;;;;;;90.15;43.55;;;;;;;;;;5055021;28;20259;-64
2023/02/10 09:43:49;;;;;;;94.68;46.58;;;;;;;;;;5054766;28;20187;-63
2023/02/10 09:46:18;;;;;;;95.78;44.97;;;;;;;;;;5055162;28;20212;-64
2023/02/10 09:48:51;;;;;;;97.65;49.83;;;;;;;;;;5054916;28;20193;-64
2023/02/10 09:51:25;;;;;;;102.53;47.90;;;;;;;;;;5055097;28;20186;-64
2023/02/10 09:53:52;;;;;;;98.18;48.25;;;;;;;;;;5055394;28;20235;-64
2023/02/10 09:56:22;;;;;;;90.10;45.03;;;;;;;;;;5054396;28;20195;-64
2023/02/10 09:58:52;;;;;;;97.75;49.65;;;;;;;;;;5054828;28;20200;-64
2023/02/10 10:01:21;;;;;;;104.45;49.03;;;;;;;;;;5054777;28;20236;-64
2023/02/10 10:03:50;;;;;;;88.70;46.47;;;;;;;;;;5054495;28;20237;-64
2023/02/10 10:06:22;;;;;;;83.28;43.25;;;;;;;;;;5054736;28;20201;-64
2023/02/10 10:08:55;;;;;;;91.13;46.20;;;;;;;;;;5055420;28;20198;-64
2023/02/10 10:11:26;;;;;;;85.68;40.83;;;;;;;;;;5054880;28;20561;-64
2023/02/10 10:13:54;;;;;;;71.18;40.42;;;;;;;;;;5055047;28;20533;-64
2023/02/10 10:16:27;;;;;;;87.95;39.50;;;;;;;;;;5054368;28;20536;-64
2023/02/10 10:18:57;;;;;;;83.65;42.65;;;;;;;;;;5054700;28;20623;-64
2023/02/10 10:21:27;;;;;;;85.65;42.92;;;;;;;;;;5054054;28;20747;-64
2023/02/10 10:24:02;;;;;;;87.60;43.70;;;;;;;;;;5053070;28;20243;-64
2023/02/10 10:26:44;;;;;;;78.40;44.55;;;;;;;;;;5054239;28;20614;-65
2023/02/10 10:29:20;;;;;;;78.53;41.30;;;;;;;;;;5054793;28;20182;-63
2023/02/10 10:31:50;;;;;;;71.85;42.17;;;;;;;;;;5054346;28;20192;-64
2023/02/10 10:34:18;;;;;;;71.65;41.47;;;;;;;;;;5054238;28;20284;-64
2023/02/10 10:36:46;;;;;;;73.15;41.80;;;;;;;;;;5054079;28;20283;-64
2023/02/10 10:39:16;;;;;;;68.75;38.97;;;;;;;;;;5053802;28;20204;-64
2023/02/10 10:41:45;;;;;;;75.13;41.60;;;;;;;;;;5053995;28;20221;-64
2023/02/10 10:44:14;;;;;;;66.68;37.97;;;;;;;;;;5054195;28;20202;-64
2023/02/10 10:46:45;;;;;;;64.07;40.03;;;;;;;;;;5053776;28;20197;-64
2023/02/10 10:49:12;;;;;;;67.47;36.13;;;;;;;;;;5053624;28;20636;-64
2023/02/10 10:51:39;;;;;;;63.88;37.88;;;;;;;;;;5053764;28;20199;-64
2023/02/10 10:54:09;;;;;;;60.33;37.78;;;;;;;;;;5053768;28;20204;-64
2023/02/10 10:56:38;;;;;;;55.40;36.53;;;;;;;;;;5053650;28;20244;-65
2023/02/10 10:59:13;;;;;;;65.13;36.30;;;;;;;;;;5053676;28;20251;-63
2023/02/10 11:01:42;;;;;;;68.40;36.28;;;;;;;;;;5053580;28;20224;-64
2023/02/10 11:04:13;;;;;;;63.50;34.63;;;;;;;;;;5053200;28;20194;-65
2023/02/10 11:06:41;;;;;;;58.72;37.33;;;;;;;;;;5053729;28;20211;-64
2023/02/10 11:09:18;;;;;;;55.13;34.97;;;;;;;;;;5053778;28;20190;-64
2023/02/10 11:11:45;;;;;;;62.90;34.88;;;;;;;;;;5053778;28;20240;-64
2023/02/10 11:14:16;;;;;;;58.00;32.42;;;;;;;;;;5053704;28;20271;-64
2023/02/10 11:16:45;;;;;;;57.13;33.58;;;;;;;;;;5053841;28;20182;-64
2023/02/10 11:19:19;;;;;;;56.10;33.42;;;;;;;;;;5053197;28;20661;-64
2023/02/10 11:21:46;;;;;;;58.58;34.58;;;;;;;;;;5053312;28;20206;-65
2023/02/10 11:24:21;;;;;;;55.42;32.55;;;;;;;;;;5053443;28;20203;-64
2023/02/10 11:26:55;;;;;;;62.38;36.50;;;;;;;;;;5053014;28;20635;-63
2023/02/10 11:29:24;;;;;;;53.03;32.70;;;;;;;;;;5053590;28;20201;-64
2023/02/10 11:31:52;;;;;;;54.58;32.92;;;;;;;;;;5052948;28;20202;-64
2023/02/10 11:34:21;;;;;;;53.30;29.73;;;;;;;;;;5055019;28;20194;-64
2023/02/10 11:36:50;;;;;;;47.25;29.92;;;;;;;;;;5057341;28;20286;-64
2023/02/10 11:39:21;;;;;;;41.40;25.20;;;;;;;;;;5057448;28;20186;-64
2023/02/10 11:41:49;;;;;;;38.08;23.35;;;;;;;;;;5056986;28;20670;-64
2023/02/10 11:44:24;;;;;;;40.00;23.90;;;;;;;;;;5057301;28;20198;-65
2023/02/10 11:46:57;;;;;;;37.20;23.15;;;;;;;;;;5056901;28;20182;-64
2023/02/10 11:49:27;;;;;;;36.58;22.55;;;;;;;;;;5057297;28;20179;-64
2023/02/10 11:51:56;;;;;;;45.65;25.02;;;;;;;;;;5057139;28;20186;-64
2023/02/10 11:54:23;;;;;;;39.45;24.42;;;;;;;;;;5057184;28;20554;-64
2023/02/10 12:00:01;;;;;;;40.75;23.98;;;;;;;;;;4976005;28;20583;-64
2023/02/10 12:02:37;;;;;;;44.38;26.15;;;;;;;;;;5026876;28;20217;-64
2023/02/10 12:05:08;;;;;;;40.65;23.98;;;;;;;;;;5056622;28;20229;-65
2023/02/10 12:07:39;;;;;;;40.92;23.75;;;;;;;;;;5056570;28;20182;-64
2023/02/10 12:10:10;;;;;;;39.78;25.60;;;;;;;;;;5056939;28;20186;-64
2023/02/10 12:12:43;;;;;;;48.85;26.70;;;;;;;;;;5056817;28;20220;-64
2023/02/10 12:15:16;;;;;;;39.80;25.58;;;;;;;;;;5057164;28;20183;-64
2023/02/10 12:17:48;;;;;;;41.22;25.63;;;;;;;;;;5056672;28;20182;-64
2023/02/10 12:20:23;;;;;;;47.50;24.83;;;;;;;;;;5056848;28;20181;-65
2023/02/10 12:23:08;;;;;;;39.85;22.90;;;;;;;;;;5056817;28;20241;-62
2023/02/10 12:25:38;;;;;;;50.30;23.48;;;;;;;;;;5056742;28;20624;-62
2023/02/10 12:28:09;;;;;;;38.30;21.60;;;;;;;;;;5056845;28;20198;-62
2023/02/10 12:30:43;;;;;;;43.53;20.63;;;;;;;;;;5056273;28;20178;-62
2023/02/10 12:33:34;;;;;;;38.22;22.40;;;;;;;;;;5056409;28;20187;-62
2023/02/10 12:36:09;;;;;;;31.85;19.98;;;;;;;;;;5032137;28;20193;-62
2023/02/10 12:38:51;;;;;;;37.33;21.35;;;;;;;;;;5055941;28;20182;-62
2023/02/10 12:41:25;;;;;;;32.22;19.77;;;;;;;;;;5052797;28;20554;-63
2023/02/10 12:43:59;;;;;;;28.58;18.02;;;;;;;;;;5056191;28;20186;-62
2023/02/10 12:46:28;;;;;;;30.27;18.17;;;;;;;;;;5055474;28;20186;-62
2023/02/10 12:49:04;;;;;;;27.48;16.50;;;;;;;;;;5055635;28;20673;-64
2023/02/10 12:51:39;;;;;;;25.65;14.82;;;;;;;;;;5056794;28;20515;-64
2023/02/10 12:54:09;;;;;;;31.08;18.27;;;;;;;;;;5056004;28;20179;-64
2023/02/10 12:56:39;;;;;;;31.20;17.88;;;;;;;;;;5056040;28;20194;-65
2023/02/10 12:59:08;;;;;;;36.28;17.95;;;;;;;;;;5055356;28;20632;-65
2023/02/10 13:01:39;;;;;;;28.10;16.55;;;;;;;;;;5055405;28;20234;-64
2023/02/10 13:04:10;;;;;;;27.98;16.08;;;;;;;;;;5054952;28;20223;-65
2023/02/10 13:06:41;;;;;;;31.58;17.10;;;;;;;;;;5055278;28;20183;-62
2023/02/10 13:09:12;;;;;;;31.92;17.33;;;;;;;;;;5055109;28;20183;-65
2023/02/10 13:11:43;;;;;;;34.80;19.98;;;;;;;;;;5054887;28;20189;-65
2023/02/10 13:14:14;;;;;;;33.28;21.05;;;;;;;;;;5054961;28;20195;-65
2023/02/10 13:16:41;;;;;;;34.50;19.63;;;;;;;;;;5055230;28;20188;-62
2023/02/10 13:19:16;;;;;;;26.92;16.77;;;;;;;;;;5054449;28;20200;-62
2023/02/10 13:21:51;;;;;;;33.35;19.08;;;;;;;;;;5055097;28;20202;-64
2023/02/10 13:24:21;;;;;;;40.92;19.40;;;;;;;;;;5054961;28;20214;-64
2023/02/10 13:26:55;;;;;;;32.95;20.13;;;;;;;;;;5055176;28;20191;-63
2023/02/10 13:29:26;;;;;;;38.97;18.38;;;;;;;;;;5054449;28;20604;-62
2023/02/10 13:32:03;;;;;;;35.97;19.35;;;;;;;;;;5054989;28;20179;-62
2023/02/10 13:34:36;;;;;;;34.90;18.80;;;;;;;;;;5054226;28;20201;-62
2023/02/10 13:37:07;;;;;;;32.55;18.27;;;;;;;;;;5054617;28;20270;-62
2023/02/10 13:39:35;;;;;;;34.63;20.50;;;;;;;;;;5054181;28;20584;-62
2023/02/10 13:42:08;;;;;;;35.58;18.95;;;;;;;;;;5053980;28;20215;-62
2023/02/10 13:44:40;;;;;;;33.17;18.10;;;;;;;;;;5054322;28;20193;-62
2023/02/10 13:47:14;;;;;;;29.15;15.77;;;;;;;;;;5054732;28;20505;-62
2023/02/10 13:49:50;;;;;;;35.47;16.33;;;;;;;;;;5054179;28;20216;-64
2023/02/10 13:52:19;;;;;;;28.75;17.27;;;;;;;;;;5054871;28;20253;-61
2023/02/10 13:54:54;;;;;;;36.83;17.95;;;;;;;;;;5054804;28;20190;-61
2023/02/10 13:57:29;;;;;;;30.83;16.92;;;;;;;;;;5054028;28;20182;-64
2023/02/10 14:00:06;;;;;;;35.50;16.67;;;;;;;;;;5053998;28;20276;-65
2023/02/10 14:02:33;;;;;;;25.05;14.68;;;;;;;;;;5053940;28;20203;-64
2023/02/10 14:05:00;;;;;;;25.63;13.87;;;;;;;;;;5053710;28;20228;-64
2023/02/10 14:07:37;;;;;;;29.95;13.95;;;;;;;;;;5053630;28;20444;-66
2023/02/10 14:10:06;;;;;;;34.70;14.73;;;;;;;;;;5054009;28;20620;-65
2023/02/10 14:12:36;;;;;;;27.55;12.85;;;;;;;;;;5053945;28;20195;-65
2023/02/10 14:15:22;;;;;;;18.77;13.50;;;;;;;;;;5052533;28;20491;-66
2023/02/10 14:18:00;;;;;;;22.70;12.93;;;;;;;;;;5052909;28;20441;-66
2023/02/10 14:20:28;;;;;;;35.70;14.98;;;;;;;;;;5052927;28;21005;-66
2023/02/10 14:22:58;;;;;;;22.83;12.75;;;;;;;;;;5052636;28;20221;-67
2023/02/10 14:25:29;;;;;;;25.45;13.50;;;;;;;;;;5053183;28;20199;-68
2023/02/10 14:27:56;;;;;;;37.10;14.05;;;;;;;;;;5053440;28;20182;-66
2023/02/10 14:30:25;;;;;;;28.17;13.05;;;;;;;;;;5052890;28;20723;-66
2023/02/10 14:32:53;;;;;;;29.77;14.38;;;;;;;;;;5053141;28;20199;-67